Aérodrome :
LOGIN :

S'inscrire | Disclaimer

   EN    FR    IT 

 










Légende :    VFR   VFR Marginal   IFR   IFR Intensif   IFR Très Intensif
Visi : 
Plafond : 
>= 8 km
>= 3000ft
5 à 8 km
1000 à 3000 ft
1500m à 5 km
500 à 1000 ft
800 à 1500m
200 à 500 ft
< 800m
< 200 ft
Symboles :   Orages  Brouillard  Fortes neiges  Fortes précipitations  Vent > 20 kt
SIGMETs :   Divers  Orages  Givrage  Turbulence  Onde Orograph.  Cendres Volcan.






- Altitude de l'aérodrome : 27 ft
- Code IATA : PMI


LEPA - Palma de Mallorca

DERNIER METAR :
  • 301000Z 22010KT 9999 BKN020 16/13 Q1013 NOSIG

METARs EXPIRÉS :
  • 300930Z 21010KT 190V250 9999 BKN020 17/13 Q1013 NOSIG
  • 300900Z 17006KT 120V210 9999 BKN020 17/13 Q1013 NOSIG
  • 300830Z 18004KT 140V220 9999 FEW022 SCT068 15/14 Q1013 NOSIG
  • 300800Z 17003KT 090V210 9999 FEW022 SCT068 15/14 Q1013 NOSIG
  • 300730Z 07002KT 9999 FEW022 SCT068 12/11 Q1013 NOSIG

TAF TAF LEPA
Valide du 30 à 06h jusqu'au 31 à 06h UTC


300500Z 3006/3106 VRB03KT 9999 FEW015 SCT030 TX17/3012Z TN08/3006Z
PROB40
TEMPO 3006/3106 4000 SHRA BKN015 FEW030TCU
BECMG 3010/3012 20009KT
BECMG 3018/3021 06006KT



MET'MAP, la Météo Aéronautique d'un coup d'oeil ! - Copyright ORBIFLY Décembre 2007 - Disclaimer

ORBIFLY MET'MAP TEAM :

Programmation & Développement : Alexandra Zaïnal
Sur une idée originale de : Baudouin d'Aumeries
Assistance à la programmation : Marc-Olivier Méhu
Soutien technique & logistique : Manuel Goepfert

Contact : metmap@orbifly.com




SOURCES & CREDITS :

   NOAA